sensor_id;sensor_type;location;lat;lon;timestamp;P1;durP1;ratioP1;P2;durP2;ratioP2
35506;SDS011;36461;52.018;21.036;2022-12-29T00:01:35;9.30;;;5.15;;
35506;SDS011;36461;52.018;21.036;2022-12-29T00:04:04;9.35;;;5.53;;
35506;SDS011;36461;52.018;21.036;2022-12-29T00:06:31;8.83;;;5.62;;
35506;SDS011;36461;52.018;21.036;2022-12-29T00:08:58;8.38;;;5.50;;
35506;SDS011;36461;52.018;21.036;2022-12-29T00:11:25;9.58;;;5.62;;
35506;SDS011;36461;52.018;21.036;2022-12-29T00:13:53;8.63;;;5.80;;
35506;SDS011;36461;52.018;21.036;2022-12-29T00:16:42;7.47;;;4.67;;
35506;SDS011;36461;52.018;21.036;2022-12-29T00:19:11;7.65;;;4.72;;
35506;SDS011;36461;52.018;21.036;2022-12-29T00:21:57;7.55;;;5.00;;
35506;SDS011;36461;52.018;21.036;2022-12-29T00:24:47;8.88;;;5.22;;
35506;SDS011;36461;52.018;21.036;2022-12-29T00:33:12;9.50;;;5.35;;
35506;SDS011;36461;52.018;21.036;2022-12-29T00:36:02;8.53;;;4.50;;
35506;SDS011;36461;52.018;21.036;2022-12-29T00:38:43;9.55;;;5.08;;
35506;SDS011;36461;52.018;21.036;2022-12-29T00:41:34;7.75;;;4.37;;
35506;SDS011;36461;52.018;21.036;2022-12-29T00:44:19;9.03;;;4.87;;
35506;SDS011;36461;52.018;21.036;2022-12-29T00:46:45;9.33;;;4.87;;
35506;SDS011;36461;52.018;21.036;2022-12-29T00:49:12;7.60;;;5.00;;
35506;SDS011;36461;52.018;21.036;2022-12-29T00:54:36;8.98;;;5.15;;
35506;SDS011;36461;52.018;21.036;2022-12-29T00:57:06;7.08;;;4.35;;
35506;SDS011;36461;52.018;21.036;2022-12-29T00:59:35;8.33;;;4.70;;
35506;SDS011;36461;52.018;21.036;2022-12-29T01:02:03;9.33;;;4.70;;
35506;SDS011;36461;52.018;21.036;2022-12-29T01:04:31;8.63;;;4.30;;
35506;SDS011;36461;52.018;21.036;2022-12-29T01:06:57;8.68;;;4.83;;
35506;SDS011;36461;52.018;21.036;2022-12-29T01:09:23;8.63;;;4.65;;
35506;SDS011;36461;52.018;21.036;2022-12-29T01:12:09;7.67;;;4.75;;
35506;SDS011;36461;52.018;21.036;2022-12-29T01:14:36;7.95;;;4.55;;
35506;SDS011;36461;52.018;21.036;2022-12-29T01:17:03;7.90;;;4.83;;
35506;SDS011;36461;52.018;21.036;2022-12-29T01:19:32;6.80;;;4.22;;
35506;SDS011;36461;52.018;21.036;2022-12-29T01:21:59;7.67;;;4.00;;
35506;SDS011;36461;52.018;21.036;2022-12-29T01:24:27;7.30;;;4.22;;
35506;SDS011;36461;52.018;21.036;2022-12-29T01:26:54;7.55;;;4.47;;
35506;SDS011;36461;52.018;21.036;2022-12-29T01:29:20;7.08;;;3.90;;
35506;SDS011;36461;52.018;21.036;2022-12-29T01:31:47;8.23;;;4.20;;
35506;SDS011;36461;52.018;21.036;2022-12-29T01:34:15;7.42;;;4.28;;
35506;SDS011;36461;52.018;21.036;2022-12-29T01:36:41;6.58;;;4.58;;
35506;SDS011;36461;52.018;21.036;2022-12-29T01:39:08;6.80;;;4.03;;
35506;SDS011;36461;52.018;21.036;2022-12-29T01:41:34;8.05;;;4.03;;
35506;SDS011;36461;52.018;21.036;2022-12-29T01:44:01;8.98;;;4.15;;
35506;SDS011;36461;52.018;21.036;2022-12-29T01:46:32;7.30;;;4.20;;
35506;SDS011;36461;52.018;21.036;2022-12-29T01:49:05;6.53;;;3.90;;
35506;SDS011;36461;52.018;21.036;2022-12-29T01:52:13;6.05;;;3.98;;
35506;SDS011;36461;52.018;21.036;2022-12-29T01:54:22;7.70;;;4.12;;
35506;SDS011;36461;52.018;21.036;2022-12-29T01:56:58;6.67;;;4.28;;
35506;SDS011;36461;52.018;21.036;2022-12-29T01:59:30;7.15;;;3.90;;
35506;SDS011;36461;52.018;21.036;2022-12-29T02:02:00;7.53;;;4.12;;
35506;SDS011;36461;52.018;21.036;2022-12-29T02:04:29;6.97;;;4.35;;
35506;SDS011;36461;52.018;21.036;2022-12-29T02:07:01;8.10;;;4.17;;
35506;SDS011;36461;52.018;21.036;2022-12-29T02:09:34;6.42;;;4.30;;
35506;SDS011;36461;52.018;21.036;2022-12-29T02:12:00;6.95;;;3.90;;
35506;SDS011;36461;52.018;21.036;2022-12-29T02:14:28;5.47;;;3.80;;
35506;SDS011;36461;52.018;21.036;2022-12-29T02:17:17;7.78;;;3.65;;
35506;SDS011;36461;52.018;21.036;2022-12-29T02:26:13;7.28;;;4.20;;
35506;SDS011;36461;52.018;21.036;2022-12-29T02:29:04;6.67;;;3.90;;
35506;SDS011;36461;52.018;21.036;2022-12-29T02:34:50;7.65;;;4.05;;
35506;SDS011;36461;52.018;21.036;2022-12-29T02:37:34;6.58;;;4.15;;
35506;SDS011;36461;52.018;21.036;2022-12-29T02:40:23;6.67;;;3.92;;
35506;SDS011;36461;52.018;21.036;2022-12-29T02:43:04;8.48;;;3.85;;
35506;SDS011;36461;52.018;21.036;2022-12-29T02:48:30;5.87;;;3.75;;
35506;SDS011;36461;52.018;21.036;2022-12-29T02:51:12;6.58;;;3.67;;
35506;SDS011;36461;52.018;21.036;2022-12-29T02:53:50;8.45;;;3.77;;
35506;SDS011;36461;52.018;21.036;2022-12-29T02:56:37;5.75;;;3.40;;
35506;SDS011;36461;52.018;21.036;2022-12-29T02:59:04;7.25;;;3.95;;
35506;SDS011;36461;52.018;21.036;2022-12-29T03:07:40;6.17;;;3.87;;
35506;SDS011;36461;52.018;21.036;2022-12-29T03:13:04;9.25;;;4.22;;
35506;SDS011;36461;52.018;21.036;2022-12-29T03:18:57;8.73;;;4.17;;
35506;SDS011;36461;52.018;21.036;2022-12-29T03:21:56;9.05;;;4.15;;
35506;SDS011;36461;52.018;21.036;2022-12-29T03:24:48;7.42;;;3.90;;
35506;SDS011;36461;52.018;21.036;2022-12-29T03:27:22;7.75;;;4.33;;
35506;SDS011;36461;52.018;21.036;2022-12-29T03:29:54;7.60;;;4.00;;
35506;SDS011;36461;52.018;21.036;2022-12-29T03:32:31;5.75;;;3.52;;
35506;SDS011;36461;52.018;21.036;2022-12-29T03:35:07;7.22;;;3.92;;
35506;SDS011;36461;52.018;21.036;2022-12-29T03:37:39;8.18;;;4.17;;
35506;SDS011;36461;52.018;21.036;2022-12-29T03:40:27;8.30;;;4.78;;
35506;SDS011;36461;52.018;21.036;2022-12-29T03:42:55;9.23;;;5.03;;
35506;SDS011;36461;52.018;21.036;2022-12-29T03:45:22;8.20;;;4.70;;
35506;SDS011;36461;52.018;21.036;2022-12-29T03:47:49;8.88;;;4.80;;
35506;SDS011;36461;52.018;21.036;2022-12-29T03:50:17;11.10;;;5.75;;
35506;SDS011;36461;52.018;21.036;2022-12-29T03:52:44;8.25;;;5.00;;
35506;SDS011;36461;52.018;21.036;2022-12-29T03:55:11;9.65;;;5.75;;
35506;SDS011;36461;52.018;21.036;2022-12-29T03:57:38;11.68;;;6.10;;
35506;SDS011;36461;52.018;21.036;2022-12-29T04:00:07;9.58;;;5.60;;
35506;SDS011;36461;52.018;21.036;2022-12-29T04:02:41;10.45;;;5.87;;
35506;SDS011;36461;52.018;21.036;2022-12-29T04:05:10;10.20;;;5.62;;
35506;SDS011;36461;52.018;21.036;2022-12-29T04:07:37;9.28;;;6.03;;
35506;SDS011;36461;52.018;21.036;2022-12-29T04:10:04;11.30;;;6.25;;
35506;SDS011;36461;52.018;21.036;2022-12-29T04:12:33;9.73;;;6.45;;
35506;SDS011;36461;52.018;21.036;2022-12-29T04:15:01;10.82;;;6.08;;
35506;SDS011;36461;52.018;21.036;2022-12-29T04:17:28;11.45;;;6.25;;
35506;SDS011;36461;52.018;21.036;2022-12-29T04:19:55;9.90;;;5.55;;
35506;SDS011;36461;52.018;21.036;2022-12-29T04:22:23;10.30;;;5.70;;
35506;SDS011;36461;52.018;21.036;2022-12-29T04:24:49;12.00;;;6.28;;
35506;SDS011;36461;52.018;21.036;2022-12-29T04:27:17;11.40;;;6.03;;
35506;SDS011;36461;52.018;21.036;2022-12-29T04:29:51;12.20;;;5.92;;
35506;SDS011;36461;52.018;21.036;2022-12-29T04:32:34;10.85;;;5.85;;
35506;SDS011;36461;52.018;21.036;2022-12-29T04:35:01;11.30;;;6.53;;
35506;SDS011;36461;52.018;21.036;2022-12-29T04:37:28;10.08;;;6.08;;
35506;SDS011;36461;52.018;21.036;2022-12-29T04:39:54;9.65;;;5.95;;
35506;SDS011;36461;52.018;21.036;2022-12-29T04:42:21;11.00;;;6.30;;
35506;SDS011;36461;52.018;21.036;2022-12-29T04:44:48;10.20;;;6.22;;
35506;SDS011;36461;52.018;21.036;2022-12-29T04:47:16;9.90;;;5.90;;
35506;SDS011;36461;52.018;21.036;2022-12-29T04:49:54;10.58;;;5.45;;
35506;SDS011;36461;52.018;21.036;2022-12-29T04:52:34;9.98;;;6.08;;
35506;SDS011;36461;52.018;21.036;2022-12-29T04:55:02;9.45;;;6.15;;
35506;SDS011;36461;52.018;21.036;2022-12-29T04:57:30;12.40;;;6.35;;
35506;SDS011;36461;52.018;21.036;2022-12-29T04:59:58;11.25;;;5.90;;
35506;SDS011;36461;52.018;21.036;2022-12-29T05:02:25;10.65;;;5.87;;
35506;SDS011;36461;52.018;21.036;2022-12-29T05:04:53;9.25;;;5.72;;
35506;SDS011;36461;52.018;21.036;2022-12-29T05:07:19;10.28;;;6.15;;
35506;SDS011;36461;52.018;21.036;2022-12-29T05:09:47;9.45;;;5.50;;
35506;SDS011;36461;52.018;21.036;2022-12-29T05:14:42;9.85;;;5.72;;
35506;SDS011;36461;52.018;21.036;2022-12-29T05:17:09;9.60;;;5.70;;
35506;SDS011;36461;52.018;21.036;2022-12-29T05:19:36;11.03;;;5.87;;
35506;SDS011;36461;52.018;21.036;2022-12-29T05:22:04;10.40;;;5.67;;
35506;SDS011;36461;52.018;21.036;2022-12-29T05:24:31;8.53;;;5.50;;
35506;SDS011;36461;52.018;21.036;2022-12-29T05:26:58;8.70;;;5.20;;
35506;SDS011;36461;52.018;21.036;2022-12-29T05:29:38;11.35;;;5.87;;
35506;SDS011;36461;52.018;21.036;2022-12-29T05:32:05;10.32;;;5.87;;
35506;SDS011;36461;52.018;21.036;2022-12-29T05:34:32;10.10;;;5.72;;
35506;SDS011;36461;52.018;21.036;2022-12-29T05:36:58;10.78;;;6.15;;
35506;SDS011;36461;52.018;21.036;2022-12-29T05:39:25;10.60;;;5.90;;
35506;SDS011;36461;52.018;21.036;2022-12-29T05:41:53;13.30;;;6.87;;
35506;SDS011;36461;52.018;21.036;2022-12-29T05:44:38;9.85;;;5.97;;
35506;SDS011;36461;52.018;21.036;2022-12-29T05:47:12;9.50;;;5.75;;
35506;SDS011;36461;52.018;21.036;2022-12-29T05:49:41;9.73;;;5.85;;
35506;SDS011;36461;52.018;21.036;2022-12-29T05:52:09;9.53;;;5.47;;
35506;SDS011;36461;52.018;21.036;2022-12-29T05:54:36;10.90;;;6.90;;
35506;SDS011;36461;52.018;21.036;2022-12-29T05:57:04;11.05;;;6.22;;
35506;SDS011;36461;52.018;21.036;2022-12-29T05:59:32;10.35;;;5.87;;
35506;SDS011;36461;52.018;21.036;2022-12-29T06:01:58;11.12;;;6.95;;
35506;SDS011;36461;52.018;21.036;2022-12-29T06:04:25;10.65;;;5.78;;
35506;SDS011;36461;52.018;21.036;2022-12-29T06:06:52;10.28;;;5.92;;
35506;SDS011;36461;52.018;21.036;2022-12-29T06:09:20;9.80;;;5.55;;
35506;SDS011;36461;52.018;21.036;2022-12-29T06:11:46;9.00;;;5.45;;
35506;SDS011;36461;52.018;21.036;2022-12-29T06:14:12;8.73;;;5.28;;
35506;SDS011;36461;52.018;21.036;2022-12-29T06:16:39;10.43;;;6.15;;
35506;SDS011;36461;52.018;21.036;2022-12-29T06:19:07;10.05;;;5.67;;
35506;SDS011;36461;52.018;21.036;2022-12-29T06:21:35;10.78;;;5.67;;
35506;SDS011;36461;52.018;21.036;2022-12-29T06:24:03;9.38;;;5.70;;
35506;SDS011;36461;52.018;21.036;2022-12-29T06:26:31;10.00;;;6.00;;
35506;SDS011;36461;52.018;21.036;2022-12-29T06:28:58;10.05;;;5.83;;
35506;SDS011;36461;52.018;21.036;2022-12-29T06:31:24;10.35;;;6.03;;
35506;SDS011;36461;52.018;21.036;2022-12-29T06:33:51;8.33;;;5.40;;
35506;SDS011;36461;52.018;21.036;2022-12-29T06:36:17;10.65;;;5.50;;
35506;SDS011;36461;52.018;21.036;2022-12-29T06:38:43;11.05;;;5.50;;
35506;SDS011;36461;52.018;21.036;2022-12-29T06:41:10;8.23;;;5.28;;
35506;SDS011;36461;52.018;21.036;2022-12-29T06:43:54;10.75;;;5.90;;
35506;SDS011;36461;52.018;21.036;2022-12-29T06:46:23;11.18;;;5.47;;
35506;SDS011;36461;52.018;21.036;2022-12-29T06:48:49;8.80;;;5.17;;
35506;SDS011;36461;52.018;21.036;2022-12-29T06:51:16;10.00;;;5.25;;
35506;SDS011;36461;52.018;21.036;2022-12-29T06:53:42;8.03;;;4.90;;
35506;SDS011;36461;52.018;21.036;2022-12-29T06:56:09;10.25;;;5.45;;
35506;SDS011;36461;52.018;21.036;2022-12-29T06:58:35;9.25;;;5.05;;
35506;SDS011;36461;52.018;21.036;2022-12-29T07:01:02;10.68;;;5.40;;
35506;SDS011;36461;52.018;21.036;2022-12-29T07:03:28;8.23;;;5.47;;
35506;SDS011;36461;52.018;21.036;2022-12-29T07:05:55;10.00;;;5.90;;
35506;SDS011;36461;52.018;21.036;2022-12-29T07:08:23;9.78;;;5.95;;
35506;SDS011;36461;52.018;21.036;2022-12-29T07:10:50;9.38;;;5.22;;
35506;SDS011;36461;52.018;21.036;2022-12-29T07:13:16;8.58;;;4.70;;
35506;SDS011;36461;52.018;21.036;2022-12-29T07:15:43;8.78;;;5.03;;
35506;SDS011;36461;52.018;21.036;2022-12-29T07:18:09;9.60;;;5.47;;
35506;SDS011;36461;52.018;21.036;2022-12-29T07:20:36;7.50;;;4.55;;
35506;SDS011;36461;52.018;21.036;2022-12-29T07:23:02;10.78;;;5.20;;
35506;SDS011;36461;52.018;21.036;2022-12-29T07:25:28;10.00;;;5.70;;
35506;SDS011;36461;52.018;21.036;2022-12-29T07:27:55;9.30;;;5.22;;
35506;SDS011;36461;52.018;21.036;2022-12-29T07:30:21;9.85;;;5.72;;
35506;SDS011;36461;52.018;21.036;2022-12-29T07:32:47;8.48;;;5.33;;
35506;SDS011;36461;52.018;21.036;2022-12-29T07:35:14;9.10;;;5.42;;
35506;SDS011;36461;52.018;21.036;2022-12-29T07:37:41;10.15;;;5.35;;
35506;SDS011;36461;52.018;21.036;2022-12-29T07:40:09;9.25;;;5.20;;
35506;SDS011;36461;52.018;21.036;2022-12-29T07:42:37;8.98;;;5.15;;
35506;SDS011;36461;52.018;21.036;2022-12-29T07:45:05;8.50;;;4.70;;
35506;SDS011;36461;52.018;21.036;2022-12-29T07:47:34;8.05;;;4.87;;
35506;SDS011;36461;52.018;21.036;2022-12-29T07:50:01;9.18;;;4.85;;
35506;SDS011;36461;52.018;21.036;2022-12-29T07:52:27;8.93;;;5.22;;
35506;SDS011;36461;52.018;21.036;2022-12-29T07:54:54;9.60;;;4.80;;
35506;SDS011;36461;52.018;21.036;2022-12-29T07:57:21;9.75;;;5.10;;
35506;SDS011;36461;52.018;21.036;2022-12-29T07:59:47;7.28;;;4.42;;
35506;SDS011;36461;52.018;21.036;2022-12-29T08:02:13;8.28;;;5.08;;
35506;SDS011;36461;52.018;21.036;2022-12-29T08:04:40;10.85;;;5.47;;
35506;SDS011;36461;52.018;21.036;2022-12-29T08:07:06;9.08;;;5.78;;
35506;SDS011;36461;52.018;21.036;2022-12-29T08:09:32;9.23;;;5.12;;
35506;SDS011;36461;52.018;21.036;2022-12-29T08:11:59;7.60;;;4.80;;
35506;SDS011;36461;52.018;21.036;2022-12-29T08:14:25;8.80;;;5.35;;
35506;SDS011;36461;52.018;21.036;2022-12-29T08:16:52;8.43;;;5.10;;
35506;SDS011;36461;52.018;21.036;2022-12-29T08:19:18;8.18;;;5.00;;
35506;SDS011;36461;52.018;21.036;2022-12-29T08:21:45;8.75;;;4.95;;
35506;SDS011;36461;52.018;21.036;2022-12-29T08:24:11;10.82;;;6.45;;
35506;SDS011;36461;52.018;21.036;2022-12-29T08:26:40;9.65;;;5.62;;
35506;SDS011;36461;52.018;21.036;2022-12-29T08:29:06;9.88;;;5.60;;
35506;SDS011;36461;52.018;21.036;2022-12-29T08:31:33;9.58;;;5.05;;
35506;SDS011;36461;52.018;21.036;2022-12-29T08:34:01;10.60;;;4.97;;
35506;SDS011;36461;52.018;21.036;2022-12-29T08:36:29;9.48;;;5.80;;
35506;SDS011;36461;52.018;21.036;2022-12-29T08:38:56;7.90;;;4.87;;
35506;SDS011;36461;52.018;21.036;2022-12-29T08:41:24;8.75;;;5.08;;
35506;SDS011;36461;52.018;21.036;2022-12-29T08:43:50;8.35;;;4.72;;
35506;SDS011;36461;52.018;21.036;2022-12-29T08:46:17;8.15;;;4.65;;
35506;SDS011;36461;52.018;21.036;2022-12-29T08:48:45;7.33;;;4.53;;
35506;SDS011;36461;52.018;21.036;2022-12-29T08:51:12;9.68;;;4.40;;
35506;SDS011;36461;52.018;21.036;2022-12-29T08:53:39;6.22;;;4.15;;
35506;SDS011;36461;52.018;21.036;2022-12-29T08:56:06;6.67;;;4.42;;
35506;SDS011;36461;52.018;21.036;2022-12-29T08:58:36;7.60;;;4.35;;
35506;SDS011;36461;52.018;21.036;2022-12-29T09:01:04;7.25;;;4.15;;
35506;SDS011;36461;52.018;21.036;2022-12-29T09:03:32;5.75;;;3.87;;
35506;SDS011;36461;52.018;21.036;2022-12-29T09:05:58;6.83;;;4.37;;
35506;SDS011;36461;52.018;21.036;2022-12-29T09:08:25;7.17;;;4.17;;
35506;SDS011;36461;52.018;21.036;2022-12-29T09:10:51;6.45;;;4.83;;
35506;SDS011;36461;52.018;21.036;2022-12-29T09:13:17;7.90;;;4.37;;
35506;SDS011;36461;52.018;21.036;2022-12-29T09:15:44;7.22;;;4.17;;
35506;SDS011;36461;52.018;21.036;2022-12-29T09:18:11;7.10;;;4.05;;
35506;SDS011;36461;52.018;21.036;2022-12-29T09:23:04;5.95;;;3.90;;
35506;SDS011;36461;52.018;21.036;2022-12-29T09:25:33;8.13;;;4.47;;
35506;SDS011;36461;52.018;21.036;2022-12-29T09:27:59;6.55;;;4.55;;
35506;SDS011;36461;52.018;21.036;2022-12-29T09:30:28;8.45;;;4.72;;
35506;SDS011;36461;52.018;21.036;2022-12-29T09:32:55;7.28;;;4.67;;
35506;SDS011;36461;52.018;21.036;2022-12-29T09:35:21;5.83;;;3.95;;
35506;SDS011;36461;52.018;21.036;2022-12-29T09:37:48;7.53;;;4.58;;
35506;SDS011;36461;52.018;21.036;2022-12-29T09:40:23;7.75;;;4.42;;
35506;SDS011;36461;52.018;21.036;2022-12-29T09:45:47;6.90;;;4.42;;
35506;SDS011;36461;52.018;21.036;2022-12-29T09:48:37;7.50;;;4.35;;
35506;SDS011;36461;52.018;21.036;2022-12-29T09:51:11;7.25;;;4.80;;
35506;SDS011;36461;52.018;21.036;2022-12-29T09:53:41;8.73;;;5.47;;
35506;SDS011;36461;52.018;21.036;2022-12-29T09:56:21;6.42;;;4.40;;
35506;SDS011;36461;52.018;21.036;2022-12-29T09:58:55;9.58;;;5.00;;
35506;SDS011;36461;52.018;21.036;2022-12-29T10:01:53;7.58;;;4.62;;
35506;SDS011;36461;52.018;21.036;2022-12-29T10:04:27;6.08;;;3.95;;
35506;SDS011;36461;52.018;21.036;2022-12-29T10:07:00;8.53;;;4.85;;
35506;SDS011;36461;52.018;21.036;2022-12-29T10:15:17;7.70;;;4.60;;
35506;SDS011;36461;52.018;21.036;2022-12-29T10:18:24;9.15;;;4.78;;
35506;SDS011;36461;52.018;21.036;2022-12-29T10:21:06;7.65;;;4.83;;
35506;SDS011;36461;52.018;21.036;2022-12-29T10:23:53;6.75;;;4.67;;
35506;SDS011;36461;52.018;21.036;2022-12-29T10:26:38;7.75;;;4.33;;
35506;SDS011;36461;52.018;21.036;2022-12-29T10:29:16;9.45;;;5.33;;
35506;SDS011;36461;52.018;21.036;2022-12-29T10:31:50;8.50;;;4.80;;
35506;SDS011;36461;52.018;21.036;2022-12-29T10:39:57;8.68;;;5.00;;
35506;SDS011;36461;52.018;21.036;2022-12-29T10:45:03;8.00;;;4.67;;
35506;SDS011;36461;52.018;21.036;2022-12-29T10:47:34;8.53;;;5.22;;
35506;SDS011;36461;52.018;21.036;2022-12-29T10:50:04;8.33;;;4.97;;
35506;SDS011;36461;52.018;21.036;2022-12-29T10:52:33;7.25;;;4.42;;
35506;SDS011;36461;52.018;21.036;2022-12-29T10:55:02;7.87;;;4.45;;
35506;SDS011;36461;52.018;21.036;2022-12-29T10:57:40;5.67;;;3.92;;
35506;SDS011;36461;52.018;21.036;2022-12-29T11:00:17;7.08;;;4.90;;
35506;SDS011;36461;52.018;21.036;2022-12-29T11:02:49;6.72;;;4.20;;
35506;SDS011;36461;52.018;21.036;2022-12-29T11:08:35;7.55;;;4.58;;
35506;SDS011;36461;52.018;21.036;2022-12-29T11:11:07;7.97;;;4.60;;
35506;SDS011;36461;52.018;21.036;2022-12-29T11:13:49;7.70;;;4.40;;
35506;SDS011;36461;52.018;21.036;2022-12-29T11:16:32;7.30;;;4.90;;
35506;SDS011;36461;52.018;21.036;2022-12-29T11:19:01;7.85;;;4.53;;
35506;SDS011;36461;52.018;21.036;2022-12-29T11:24:04;7.95;;;4.35;;
35506;SDS011;36461;52.018;21.036;2022-12-29T11:26:54;6.50;;;4.28;;
35506;SDS011;36461;52.018;21.036;2022-12-29T11:32:17;8.03;;;4.42;;
35506;SDS011;36461;52.018;21.036;2022-12-29T11:34:48;8.00;;;4.58;;
35506;SDS011;36461;52.018;21.036;2022-12-29T11:40:01;8.23;;;4.30;;
35506;SDS011;36461;52.018;21.036;2022-12-29T11:45:18;8.05;;;4.85;;
35506;SDS011;36461;52.018;21.036;2022-12-29T11:47:48;10.55;;;5.28;;
35506;SDS011;36461;52.018;21.036;2022-12-29T11:50:26;7.12;;;4.72;;
35506;SDS011;36461;52.018;21.036;2022-12-29T11:53:05;9.65;;;4.92;;
35506;SDS011;36461;52.018;21.036;2022-12-29T11:55:50;9.03;;;4.90;;
35506;SDS011;36461;52.018;21.036;2022-12-29T11:58:19;8.18;;;4.92;;
35506;SDS011;36461;52.018;21.036;2022-12-29T12:00:45;8.10;;;5.17;;
35506;SDS011;36461;52.018;21.036;2022-12-29T12:03:19;7.80;;;5.00;;
35506;SDS011;36461;52.018;21.036;2022-12-29T12:05:55;8.98;;;5.30;;
35506;SDS011;36461;52.018;21.036;2022-12-29T12:11:24;8.85;;;5.15;;
35506;SDS011;36461;52.018;21.036;2022-12-29T12:17:09;8.85;;;5.20;;
35506;SDS011;36461;52.018;21.036;2022-12-29T12:19:53;8.20;;;5.15;;
35506;SDS011;36461;52.018;21.036;2022-12-29T12:22:38;7.80;;;5.20;;
35506;SDS011;36461;52.018;21.036;2022-12-29T12:30:44;9.83;;;5.55;;
35506;SDS011;36461;52.018;21.036;2022-12-29T12:48:03;9.45;;;5.95;;
35506;SDS011;36461;52.018;21.036;2022-12-29T12:59:17;11.63;;;6.37;;
35506;SDS011;36461;52.018;21.036;2022-12-29T13:02:08;9.65;;;5.37;;
35506;SDS011;36461;52.018;21.036;2022-12-29T13:16:43;11.25;;;5.55;;
35506;SDS011;36461;52.018;21.036;2022-12-29T13:19:24;8.95;;;5.60;;
35506;SDS011;36461;52.018;21.036;2022-12-29T13:27:59;8.78;;;4.90;;
35506;SDS011;36461;52.018;21.036;2022-12-29T13:33:56;6.50;;;4.53;;
35506;SDS011;36461;52.018;21.036;2022-12-29T13:36:37;9.90;;;4.83;;
35506;SDS011;36461;52.018;21.036;2022-12-29T13:41:48;8.40;;;4.87;;
35506;SDS011;36461;52.018;21.036;2022-12-29T13:44:27;8.95;;;4.85;;
35506;SDS011;36461;52.018;21.036;2022-12-29T13:46:59;9.28;;;5.12;;
35506;SDS011;36461;52.018;21.036;2022-12-29T13:49:49;8.08;;;4.62;;
35506;SDS011;36461;52.018;21.036;2022-12-29T13:55:00;8.05;;;5.05;;
35506;SDS011;36461;52.018;21.036;2022-12-29T13:57:44;9.45;;;5.45;;
35506;SDS011;36461;52.018;21.036;2022-12-29T14:00:22;11.97;;;5.28;;
35506;SDS011;36461;52.018;21.036;2022-12-29T14:06:02;6.65;;;4.47;;
35506;SDS011;36461;52.018;21.036;2022-12-29T14:08:39;8.20;;;4.95;;
35506;SDS011;36461;52.018;21.036;2022-12-29T14:11:09;11.12;;;4.75;;
35506;SDS011;36461;52.018;21.036;2022-12-29T14:13:41;8.03;;;4.92;;
35506;SDS011;36461;52.018;21.036;2022-12-29T14:16:21;8.50;;;5.30;;
35506;SDS011;36461;52.018;21.036;2022-12-29T14:18:55;7.65;;;4.62;;
35506;SDS011;36461;52.018;21.036;2022-12-29T14:21:48;7.75;;;5.00;;
35506;SDS011;36461;52.018;21.036;2022-12-29T14:29:45;8.73;;;5.42;;
35506;SDS011;36461;52.018;21.036;2022-12-29T14:34:59;8.55;;;4.97;;
35506;SDS011;36461;52.018;21.036;2022-12-29T14:37:46;8.28;;;4.90;;
35506;SDS011;36461;52.018;21.036;2022-12-29T14:40:22;9.35;;;5.10;;
35506;SDS011;36461;52.018;21.036;2022-12-29T14:42:51;8.40;;;4.95;;
35506;SDS011;36461;52.018;21.036;2022-12-29T14:47:55;10.50;;;5.40;;
35506;SDS011;36461;52.018;21.036;2022-12-29T14:56:17;8.95;;;5.80;;
35506;SDS011;36461;52.018;21.036;2022-12-29T14:58:52;8.03;;;4.92;;
35506;SDS011;36461;52.018;21.036;2022-12-29T15:01:43;7.70;;;4.83;;
35506;SDS011;36461;52.018;21.036;2022-12-29T15:04:20;9.08;;;5.30;;
35506;SDS011;36461;52.018;21.036;2022-12-29T15:06:52;7.75;;;4.87;;
35506;SDS011;36461;52.018;21.036;2022-12-29T15:09:32;8.48;;;5.62;;
35506;SDS011;36461;52.018;21.036;2022-12-29T15:15:10;9.45;;;5.17;;
35506;SDS011;36461;52.018;21.036;2022-12-29T15:17:45;8.68;;;5.35;;
35506;SDS011;36461;52.018;21.036;2022-12-29T15:23:00;8.23;;;5.10;;
35506;SDS011;36461;52.018;21.036;2022-12-29T15:25:45;10.38;;;5.20;;
35506;SDS011;36461;52.018;21.036;2022-12-29T15:28:41;9.73;;;5.40;;
35506;SDS011;36461;52.018;21.036;2022-12-29T15:31:11;9.48;;;5.30;;
35506;SDS011;36461;52.018;21.036;2022-12-29T15:33:47;9.18;;;5.75;;
35506;SDS011;36461;52.018;21.036;2022-12-29T15:38:52;9.33;;;6.17;;
35506;SDS011;36461;52.018;21.036;2022-12-29T15:41:23;9.58;;;5.80;;
35506;SDS011;36461;52.018;21.036;2022-12-29T15:46:46;10.32;;;6.25;;
35506;SDS011;36461;52.018;21.036;2022-12-29T15:49:13;11.70;;;6.47;;
35506;SDS011;36461;52.018;21.036;2022-12-29T15:51:41;11.28;;;6.00;;
35506;SDS011;36461;52.018;21.036;2022-12-29T15:54:16;11.63;;;5.92;;
35506;SDS011;36461;52.018;21.036;2022-12-29T15:56:46;9.25;;;5.42;;
35506;SDS011;36461;52.018;21.036;2022-12-29T16:01:58;8.98;;;5.53;;
35506;SDS011;36461;52.018;21.036;2022-12-29T16:04:29;11.93;;;6.12;;
35506;SDS011;36461;52.018;21.036;2022-12-29T16:07:01;11.43;;;6.03;;
35506;SDS011;36461;52.018;21.036;2022-12-29T16:12:17;10.25;;;6.55;;
35506;SDS011;36461;52.018;21.036;2022-12-29T16:14:57;12.00;;;7.12;;
35506;SDS011;36461;52.018;21.036;2022-12-29T16:17:28;12.20;;;6.95;;
35506;SDS011;36461;52.018;21.036;2022-12-29T16:19:59;12.73;;;7.17;;
35506;SDS011;36461;52.018;21.036;2022-12-29T16:22:33;11.53;;;7.10;;
35506;SDS011;36461;52.018;21.036;2022-12-29T16:25:08;11.03;;;6.58;;
35506;SDS011;36461;52.018;21.036;2022-12-29T16:27:37;10.45;;;6.55;;
35506;SDS011;36461;52.018;21.036;2022-12-29T16:30:12;10.75;;;6.95;;
35506;SDS011;36461;52.018;21.036;2022-12-29T16:32:51;11.68;;;7.30;;
35506;SDS011;36461;52.018;21.036;2022-12-29T16:35:22;9.85;;;6.10;;
35506;SDS011;36461;52.018;21.036;2022-12-29T16:38:13;11.35;;;6.78;;
35506;SDS011;36461;52.018;21.036;2022-12-29T16:40:54;10.98;;;6.47;;
35506;SDS011;36461;52.018;21.036;2022-12-29T16:43:35;12.18;;;6.92;;
35506;SDS011;36461;52.018;21.036;2022-12-29T16:46:21;9.35;;;5.90;;
35506;SDS011;36461;52.018;21.036;2022-12-29T16:48:55;9.83;;;6.35;;
35506;SDS011;36461;52.018;21.036;2022-12-29T16:51:33;11.40;;;6.62;;
35506;SDS011;36461;52.018;21.036;2022-12-29T16:54:02;12.55;;;6.60;;
35506;SDS011;36461;52.018;21.036;2022-12-29T16:56:30;10.63;;;6.12;;
35506;SDS011;36461;52.018;21.036;2022-12-29T16:59:04;9.95;;;5.85;;
35506;SDS011;36461;52.018;21.036;2022-12-29T17:01:44;8.40;;;5.83;;
35506;SDS011;36461;52.018;21.036;2022-12-29T17:04:11;11.75;;;6.15;;
35506;SDS011;36461;52.018;21.036;2022-12-29T17:06:39;10.30;;;5.90;;
35506;SDS011;36461;52.018;21.036;2022-12-29T17:11:56;11.12;;;7.12;;
35506;SDS011;36461;52.018;21.036;2022-12-29T17:17:02;8.93;;;5.72;;
35506;SDS011;36461;52.018;21.036;2022-12-29T17:19:33;9.88;;;5.95;;
35506;SDS011;36461;52.018;21.036;2022-12-29T17:22:04;10.23;;;6.25;;
35506;SDS011;36461;52.018;21.036;2022-12-29T17:24:40;10.40;;;6.12;;
35506;SDS011;36461;52.018;21.036;2022-12-29T17:27:07;10.88;;;6.87;;
35506;SDS011;36461;52.018;21.036;2022-12-29T17:29:47;9.70;;;6.35;;
35506;SDS011;36461;52.018;21.036;2022-12-29T17:32:15;9.70;;;6.45;;
35506;SDS011;36461;52.018;21.036;2022-12-29T17:37:31;8.50;;;5.72;;
35506;SDS011;36461;52.018;21.036;2022-12-29T17:39:55;9.70;;;6.05;;
35506;SDS011;36461;52.018;21.036;2022-12-29T17:42:21;10.03;;;6.15;;
35506;SDS011;36461;52.018;21.036;2022-12-29T17:44:52;9.45;;;6.25;;
35506;SDS011;36461;52.018;21.036;2022-12-29T17:47:16;9.03;;;6.25;;
35506;SDS011;36461;52.018;21.036;2022-12-29T17:49:43;10.03;;;6.78;;
35506;SDS011;36461;52.018;21.036;2022-12-29T17:52:13;9.85;;;6.58;;
35506;SDS011;36461;52.018;21.036;2022-12-29T17:54:42;10.30;;;6.65;;